createdAt,value
2018-11-26T00:02:02.615Z,5.04
2018-11-26T00:04:33.026Z,5.00
2018-11-26T00:07:02.754Z,4.98
2018-11-26T00:09:32.417Z,5.07
2018-11-26T00:12:03.596Z,5.07
2018-11-26T00:14:33.286Z,5.17
2018-11-26T00:17:02.965Z,5.16
2018-11-26T00:19:32.728Z,5.08
2018-11-26T00:22:02.369Z,5.19
2018-11-26T00:24:32.006Z,5.11
2018-11-26T00:27:01.888Z,5.11
2018-11-26T00:29:31.658Z,5.04
2018-11-26T00:32:01.531Z,5.20
2018-11-26T00:34:31.221Z,5.17
2018-11-26T00:37:00.887Z,5.09
2018-11-26T00:39:30.498Z,5.06
2018-11-26T00:42:00.832Z,5.11
2018-11-26T00:44:30.505Z,5.13
2018-11-26T00:47:00.139Z,5.32
2018-11-26T00:49:29.842Z,5.20
2018-11-26T00:51:59.518Z,5.18
2018-11-26T00:54:29.201Z,5.13
2018-11-26T00:56:58.958Z,5.13
2018-11-26T00:59:28.622Z,5.21
2018-11-26T01:01:58.391Z,5.17
2018-11-26T01:04:28.462Z,5.12
2018-11-26T01:06:58.156Z,5.07
2018-11-26T01:09:27.851Z,5.08
2018-11-26T01:11:57.554Z,5.13
2018-11-26T01:14:27.205Z,5.13
2018-11-26T01:16:59.993Z,5.16
2018-11-26T01:19:30.339Z,5.19
2018-11-26T01:22:00.453Z,5.23
2018-11-26T01:24:30.096Z,5.16
2018-11-26T01:26:59.768Z,5.17
2018-11-26T01:29:30.043Z,5.12
2018-11-26T01:31:59.715Z,5.10
2018-11-26T01:34:29.439Z,5.15
2018-11-26T01:36:59.154Z,5.08
2018-11-26T01:39:28.854Z,5.09
2018-11-26T01:41:58.622Z,5.07
2018-11-26T01:44:28.279Z,5.09
2018-11-26T01:46:58.070Z,5.07
2018-11-26T01:49:27.741Z,5.07
2018-11-26T01:51:57.523Z,5.06
2018-11-26T01:54:27.274Z,5.07
2018-11-26T01:56:57.014Z,5.13
2018-11-26T01:59:26.899Z,5.08
2018-11-26T02:01:56.810Z,5.03
2018-11-26T02:04:26.594Z,5.00
2018-11-26T02:06:56.268Z,5.00
2018-11-26T02:09:25.936Z,4.98
2018-11-26T02:11:56.337Z,5.07
2018-11-26T02:14:26.491Z,5.00
2018-11-26T02:16:56.140Z,4.95
2018-11-26T02:19:26.797Z,4.92
2018-11-26T02:21:56.473Z,4.91
2018-11-26T02:24:26.118Z,4.90
2018-11-26T02:26:55.820Z,4.87
2018-11-26T02:29:25.454Z,4.85
2018-11-26T02:31:55.212Z,4.86
2018-11-26T02:34:24.976Z,4.93
2018-11-26T02:36:54.615Z,4.92
2018-11-26T02:39:24.349Z,4.93
2018-11-26T02:41:54.000Z,4.92
2018-11-26T02:44:23.681Z,4.88
2018-11-26T02:46:53.479Z,4.87
2018-11-26T02:49:23.222Z,4.82
2018-11-26T02:51:52.900Z,4.82
2018-11-26T02:54:22.568Z,4.80
2018-11-26T02:56:52.221Z,4.80
2018-11-26T02:59:21.870Z,4.77
2018-11-26T03:01:51.657Z,4.78
2018-11-26T03:04:21.316Z,4.78
2018-11-26T03:06:51.019Z,4.79
2018-11-26T03:09:20.675Z,4.79
2018-11-26T03:11:50.496Z,4.78
2018-11-26T03:14:20.158Z,4.78
2018-11-26T03:16:49.831Z,4.76
2018-11-26T03:19:19.502Z,4.74
2018-11-26T03:21:49.190Z,4.74
2018-11-26T03:24:18.950Z,4.72
2018-11-26T03:26:48.733Z,4.71
2018-11-26T03:29:18.670Z,4.76
2018-11-26T03:31:48.467Z,4.73
2018-11-26T03:34:18.207Z,4.75
2018-11-26T03:36:47.950Z,4.73
2018-11-26T03:39:17.782Z,4.71
2018-11-26T03:41:47.936Z,4.75
2018-11-26T03:44:17.709Z,4.79
2018-11-26T03:46:47.541Z,4.80
2018-11-26T03:49:17.378Z,4.80
2018-11-26T03:51:48.451Z,4.81
2018-11-26T03:54:18.211Z,4.81
2018-11-26T03:56:48.007Z,4.78
2018-11-26T03:59:17.662Z,4.81
2018-11-26T04:01:47.512Z,4.85
2018-11-26T04:04:17.302Z,4.82
2018-11-26T04:06:46.992Z,4.81
2018-11-26T04:09:16.717Z,4.82
2018-11-26T04:11:46.542Z,4.83
2018-11-26T04:14:16.174Z,4.83
2018-11-26T04:16:45.911Z,4.83
2018-11-26T04:19:15.586Z,4.82
2018-11-26T04:21:45.261Z,4.77
2018-11-26T04:24:14.961Z,4.77
2018-11-26T04:26:44.635Z,4.78
2018-11-26T04:29:14.302Z,4.73
2018-11-26T04:31:44.007Z,4.70
2018-11-26T04:34:13.634Z,4.67
2018-11-26T04:36:43.399Z,4.65
2018-11-26T04:39:13.288Z,4.65
2018-11-26T04:41:43.078Z,4.68
2018-11-26T04:44:12.850Z,4.66
2018-11-26T04:46:42.622Z,4.66
2018-11-26T04:49:12.291Z,4.65
2018-11-26T04:51:42.028Z,4.64
2018-11-26T04:54:12.010Z,4.63
2018-11-26T04:56:41.687Z,4.61
2018-11-26T04:59:11.493Z,4.57
2018-11-26T05:01:41.170Z,4.55
2018-11-26T05:04:10.930Z,4.57
2018-11-26T05:06:40.755Z,4.50
2018-11-26T05:09:10.719Z,4.48
2018-11-26T05:11:40.393Z,4.48
2018-11-26T05:14:10.122Z,4.46
2018-11-26T05:16:39.840Z,4.44
2018-11-26T05:19:09.481Z,4.41
2018-11-26T05:21:39.150Z,4.38
2018-11-26T05:24:09.094Z,4.33
2018-11-26T05:26:38.579Z,4.29
2018-11-26T05:29:08.391Z,4.24
2018-11-26T05:31:38.278Z,4.22
2018-11-26T05:34:08.126Z,4.20
2018-11-26T05:36:37.942Z,4.16
2018-11-26T05:39:09.699Z,4.13
2018-11-26T05:41:39.442Z,4.11
2018-11-26T05:44:09.135Z,4.09
2018-11-26T05:46:38.881Z,4.11
2018-11-26T05:49:08.778Z,4.11
2018-11-26T05:51:38.448Z,4.10
2018-11-26T05:54:08.362Z,4.11
2018-11-26T05:56:38.030Z,4.09
2018-11-26T05:59:07.849Z,4.12
2018-11-26T06:01:37.604Z,4.12
2018-11-26T06:04:07.910Z,4.23
2018-11-26T06:06:37.887Z,4.24
2018-11-26T06:09:11.258Z,4.21
2018-11-26T06:11:41.642Z,4.21
2018-11-26T06:14:11.401Z,4.21
2018-11-26T06:16:41.113Z,4.22
2018-11-26T06:19:10.763Z,4.18
2018-11-26T06:21:40.566Z,4.21
2018-11-26T06:24:10.307Z,4.23
2018-11-26T06:26:40.039Z,4.26
2018-11-26T06:29:09.930Z,4.29
2018-11-26T06:31:39.817Z,4.30
2018-11-26T06:34:09.588Z,4.30
2018-11-26T06:36:39.306Z,4.34
2018-11-26T06:39:11.149Z,4.36
2018-11-26T06:41:40.833Z,4.39
2018-11-26T06:44:10.725Z,4.55
2018-11-26T06:46:40.405Z,4.64
2018-11-26T06:49:11.014Z,4.85
2018-11-26T06:51:40.830Z,4.81
2018-11-26T06:54:11.275Z,4.77
2018-11-26T06:56:40.978Z,4.75
2018-11-26T06:59:10.678Z,4.71
2018-11-26T07:01:40.936Z,4.67
2018-11-26T07:04:10.610Z,4.65
2018-11-26T07:06:40.397Z,4.74
2018-11-26T07:09:10.299Z,4.72
2018-11-26T07:11:41.673Z,4.70
2018-11-26T07:14:11.320Z,4.67
2018-11-26T07:16:41.111Z,4.74
2018-11-26T07:19:11.498Z,4.81
2018-11-26T07:21:41.337Z,4.78
2018-11-26T07:24:11.193Z,4.81
2018-11-26T07:26:41.117Z,4.90
2018-11-26T07:29:10.830Z,4.90
2018-11-26T07:31:40.566Z,4.95
2018-11-26T07:34:10.272Z,4.94
2018-11-26T07:36:40.071Z,5.05
2018-11-26T07:39:10.755Z,5.08
2018-11-26T07:41:40.425Z,5.09
2018-11-26T07:44:11.612Z,5.13
2018-11-26T07:46:41.307Z,5.16
2018-11-26T07:49:11.363Z,5.27
2018-11-26T07:51:41.243Z,5.27
2018-11-26T07:54:12.669Z,5.28
2018-11-26T07:56:42.558Z,5.49
2018-11-26T07:59:12.309Z,5.45
2018-11-26T08:01:42.100Z,5.47
2018-11-26T08:04:11.897Z,5.48
2018-11-26T08:06:41.603Z,5.62
2018-11-26T08:09:11.406Z,5.64
2018-11-26T08:11:41.593Z,5.69
2018-11-26T08:14:11.294Z,5.70
2018-11-26T08:16:41.205Z,5.77
2018-11-26T08:19:10.884Z,5.79
2018-11-26T08:21:40.820Z,5.81
2018-11-26T08:24:10.430Z,5.89
2018-11-26T08:26:40.144Z,5.78
2018-11-26T08:29:09.986Z,5.84
2018-11-26T08:31:39.851Z,5.91
2018-11-26T08:34:09.478Z,5.99
2018-11-26T08:36:45.315Z,6.18
2018-11-26T08:39:19.805Z,6.13
2018-11-26T08:41:53.881Z,6.09
2018-11-26T08:44:29.046Z,6.28
2018-11-26T08:47:03.907Z,6.21
2018-11-26T08:49:40.226Z,6.31
2018-11-26T08:52:10.979Z,6.29
2018-11-26T08:54:40.705Z,6.31
2018-11-26T08:57:10.436Z,6.21
2018-11-26T08:59:40.181Z,6.26
2018-11-26T09:02:09.993Z,6.27
2018-11-26T09:04:46.162Z,6.28
2018-11-26T09:07:15.952Z,6.34
2018-11-26T09:09:45.643Z,6.41
2018-11-26T09:12:15.493Z,6.45
2018-11-26T09:14:45.169Z,6.50
2018-11-26T09:17:14.964Z,6.44
2018-11-26T09:19:44.638Z,6.67
2018-11-26T09:22:14.431Z,6.61
2018-11-26T09:24:44.095Z,6.68
2018-11-26T09:27:13.835Z,6.94
2018-11-26T09:29:43.551Z,6.90
2018-11-26T09:32:13.358Z,6.98
2018-11-26T09:34:43.111Z,6.86
2018-11-26T09:37:12.830Z,6.86
2018-11-26T09:39:42.555Z,6.90
2018-11-26T09:42:12.273Z,6.84
2018-11-26T09:44:42.050Z,6.85
2018-11-26T09:47:11.814Z,6.92
2018-11-26T09:49:41.676Z,6.99
2018-11-26T09:52:11.478Z,7.15
2018-11-26T09:54:41.340Z,7.13
2018-11-26T09:57:11.127Z,7.32
2018-11-26T09:59:40.760Z,7.57
2018-11-26T10:03:39.467Z,7.53
2018-11-26T10:06:09.148Z,7.53
2018-11-26T10:08:39.070Z,7.58
2018-11-26T10:11:08.813Z,7.76
2018-11-26T10:13:38.535Z,7.70
2018-11-26T10:16:09.073Z,7.60
2018-11-26T10:18:38.887Z,7.84
2018-11-26T10:21:08.728Z,7.59
2018-11-26T10:23:38.664Z,7.58
2018-11-26T10:26:08.448Z,7.63
2018-11-26T10:28:38.286Z,7.50
2018-11-26T10:31:08.022Z,7.53
2018-11-26T10:33:37.793Z,7.52
2018-11-26T10:36:07.620Z,7.54
2018-11-26T10:38:37.321Z,7.47
2018-11-26T10:41:07.514Z,7.37
2018-11-26T10:43:37.215Z,7.47
2018-11-26T10:46:07.074Z,7.51
2018-11-26T10:48:37.400Z,7.47
2018-11-26T10:51:08.694Z,7.73
2018-11-26T10:53:38.434Z,7.73
2018-11-26T10:56:08.589Z,7.67
2018-11-26T10:58:38.387Z,7.80
2018-11-26T11:01:13.276Z,7.76
2018-11-26T11:03:43.094Z,7.93
2018-11-26T11:06:12.801Z,7.65
2018-11-26T11:08:42.538Z,7.61
2018-11-26T11:11:12.720Z,7.51
2018-11-26T11:13:42.590Z,7.54
2018-11-26T11:16:12.336Z,7.58
2018-11-26T11:18:42.077Z,7.43
2018-11-26T11:21:11.838Z,7.53
2018-11-26T11:23:41.639Z,7.45
2018-11-26T11:26:11.356Z,7.21
2018-11-26T11:28:41.080Z,7.26
2018-11-26T11:31:11.245Z,7.29
2018-11-26T11:33:41.396Z,7.23
2018-11-26T11:36:11.146Z,7.25
2018-11-26T11:38:40.994Z,7.19
2018-11-26T11:41:10.868Z,7.06
2018-11-26T11:43:40.694Z,7.12
2018-11-26T11:46:10.405Z,7.12
2018-11-26T11:48:40.568Z,7.11
2018-11-26T11:51:10.308Z,7.08
2018-11-26T11:53:40.171Z,7.01
2018-11-26T11:56:10.087Z,6.93
2018-11-26T11:58:39.800Z,7.01
2018-11-26T12:01:10.751Z,7.09
2018-11-26T12:03:40.276Z,6.92
2018-11-26T12:06:10.061Z,6.97
2018-11-26T12:08:39.815Z,6.88
2018-11-26T12:11:09.763Z,6.94
2018-11-26T12:13:39.447Z,6.90
2018-11-26T12:16:09.166Z,7.06
2018-11-26T12:18:38.921Z,7.04
2018-11-26T12:21:08.759Z,7.14
2018-11-26T12:23:38.660Z,7.26
2018-11-26T12:26:08.521Z,7.25
2018-11-26T12:28:38.492Z,7.30
2018-11-26T12:31:08.404Z,7.11
2018-11-26T12:33:38.784Z,7.16
2018-11-26T12:36:08.892Z,7.21
2018-11-26T12:38:38.898Z,7.17
2018-11-26T12:41:08.760Z,7.14
2018-11-26T12:43:38.478Z,7.15
2018-11-26T12:46:08.196Z,7.14
2018-11-26T12:48:38.280Z,7.31
2018-11-26T12:51:08.102Z,7.18
2018-11-26T12:53:38.191Z,7.20
2018-11-26T12:56:08.232Z,7.28
2018-11-26T12:58:38.034Z,7.22
2018-11-26T13:01:07.719Z,7.19
2018-11-26T13:03:37.467Z,7.19
2018-11-26T13:06:08.141Z,7.17
2018-11-26T13:08:37.852Z,7.20
2018-11-26T13:11:14.226Z,7.29
2018-11-26T13:13:44.080Z,7.29
2018-11-26T13:16:13.987Z,7.21
2018-11-26T13:18:43.755Z,7.22
2018-11-26T13:21:13.585Z,7.20
2018-11-26T13:23:43.264Z,7.29
2018-11-26T13:26:13.086Z,7.21
2018-11-26T13:28:42.802Z,7.20
2018-11-26T13:31:12.533Z,7.12
2018-11-26T13:33:42.286Z,7.16
2018-11-26T13:36:12.074Z,7.18
2018-11-26T13:38:41.806Z,7.17
2018-11-26T13:41:11.550Z,7.39
2018-11-26T13:43:41.255Z,7.32
2018-11-26T13:46:11.040Z,7.40
2018-11-26T13:48:40.781Z,7.44
2018-11-26T13:51:10.513Z,7.26
2018-11-26T13:53:40.225Z,7.30
2018-11-26T13:56:10.104Z,7.25
2018-11-26T13:58:39.796Z,7.21
2018-11-26T14:01:09.546Z,7.15
2018-11-26T14:03:39.313Z,7.25
2018-11-26T14:06:09.104Z,7.09
2018-11-26T14:08:38.900Z,6.98
2018-11-26T14:11:08.594Z,7.03
2018-11-26T14:13:38.300Z,7.12
2018-11-26T14:16:08.457Z,7.08
2018-11-26T14:18:38.601Z,7.01
2018-11-26T14:21:08.355Z,6.96
2018-11-26T14:23:38.092Z,6.97
2018-11-26T14:26:07.950Z,6.96
2018-11-26T14:28:37.720Z,7.00
2018-11-26T14:31:07.612Z,6.96
2018-11-26T14:33:37.547Z,6.90
2018-11-26T14:36:07.827Z,6.77
2018-11-26T14:38:37.694Z,6.70
2018-11-26T14:41:07.476Z,6.63
2018-11-26T14:43:37.259Z,6.67
2018-11-26T14:46:07.595Z,6.63
2018-11-26T14:48:37.348Z,6.61
2018-11-26T14:51:07.152Z,6.63
2018-11-26T14:53:36.928Z,6.54
2018-11-26T14:56:07.452Z,6.46
2018-11-26T14:58:37.212Z,6.45
2018-11-26T15:01:07.421Z,6.36
2018-11-26T15:03:37.169Z,6.25
2018-11-26T15:06:07.390Z,6.21
2018-11-26T15:08:37.163Z,6.15
2018-11-26T15:11:07.798Z,6.10
2018-11-26T15:13:38.039Z,6.05
2018-11-26T15:16:08.704Z,5.99
2018-11-26T15:18:39.187Z,5.95
2018-11-26T15:21:08.966Z,6.02
2018-11-26T15:23:38.702Z,6.07
2018-11-26T15:26:08.573Z,6.08
2018-11-26T15:28:38.292Z,6.05
2018-11-26T15:31:08.160Z,6.20
2018-11-26T15:33:37.888Z,6.16
2018-11-26T15:36:08.054Z,6.26
2018-11-26T15:38:37.948Z,6.13
2018-11-26T15:41:07.774Z,6.28
2018-11-26T15:43:37.772Z,6.15
2018-11-26T15:46:14.244Z,6.15
2018-11-26T15:48:44.315Z,6.13
2018-11-26T15:51:14.039Z,6.18
2018-11-26T15:53:44.293Z,6.16
2018-11-26T15:56:14.628Z,6.15
2018-11-26T15:58:44.320Z,6.11
2018-11-26T16:01:14.045Z,6.16
2018-11-26T16:03:43.756Z,6.10
2018-11-26T16:06:13.470Z,6.16
2018-11-26T16:08:43.402Z,6.24
2018-11-26T16:11:13.296Z,6.24
2018-11-26T16:13:43.775Z,6.17
2018-11-26T16:16:13.626Z,6.19
2018-11-26T16:18:43.402Z,6.11
2018-11-26T16:21:13.180Z,6.02
2018-11-26T16:23:43.564Z,6.03
2018-11-26T16:26:13.596Z,5.98
2018-11-26T16:28:43.413Z,6.02
2018-11-26T16:31:13.225Z,6.11
2018-11-26T16:33:43.154Z,6.05
2018-11-26T16:36:12.954Z,6.02
2018-11-26T16:38:43.547Z,6.00
2018-11-26T16:41:13.312Z,5.97
2018-11-26T16:43:43.224Z,5.96
2018-11-26T16:46:13.120Z,6.04
2018-11-26T16:48:43.076Z,6.00
2018-11-26T16:51:13.133Z,6.12
2018-11-26T16:53:43.367Z,6.14
2018-11-26T16:56:13.111Z,6.05
2018-11-26T16:58:43.175Z,5.99
2018-11-26T17:01:13.083Z,6.00
2018-11-26T17:03:44.042Z,5.88
2018-11-26T17:06:13.827Z,6.01
2018-11-26T17:08:43.769Z,5.88
2018-11-26T17:11:13.662Z,5.94
2018-11-26T17:13:44.494Z,6.01
2018-11-26T17:16:14.570Z,5.95
2018-11-26T17:18:44.581Z,6.01
2018-11-26T17:21:14.320Z,5.94
2018-11-26T17:23:44.191Z,5.96
2018-11-26T17:26:14.184Z,5.88
2018-11-26T17:28:43.892Z,5.80
2018-11-26T17:31:16.743Z,5.89
2018-11-26T17:33:46.710Z,5.86
2018-11-26T17:36:16.374Z,5.88
2018-11-26T17:38:46.078Z,5.80
2018-11-26T17:41:16.495Z,5.87
2018-11-26T17:43:46.238Z,5.78
2018-11-26T17:46:15.956Z,5.90
2018-11-26T17:48:45.831Z,5.77
2018-11-26T17:51:15.778Z,5.88
2018-11-26T17:53:45.623Z,5.79
2018-11-26T17:56:15.501Z,5.78
2018-11-26T17:58:45.525Z,5.71
2018-11-26T18:01:25.949Z,5.77
2018-11-26T18:03:55.756Z,5.76
2018-11-26T18:06:25.461Z,5.67
2018-11-26T18:08:55.339Z,5.58
2018-11-26T18:11:25.359Z,5.53
2018-11-26T18:13:55.341Z,5.61
2018-11-26T18:16:25.144Z,5.51
2018-11-26T18:18:54.924Z,5.58
2018-11-26T18:21:25.853Z,5.50
2018-11-26T18:23:55.647Z,5.64
2018-11-26T18:26:25.756Z,5.57
2018-11-26T18:28:55.507Z,5.52
2018-11-26T18:31:25.298Z,5.45
2018-11-26T18:33:55.015Z,5.45
2018-11-26T18:36:24.955Z,5.40
2018-11-26T18:38:54.724Z,5.35
2018-11-26T18:41:24.443Z,5.47
2018-11-26T18:43:54.483Z,5.38
2018-11-26T18:46:24.285Z,5.30
2018-11-26T18:48:54.246Z,5.26
2018-11-26T18:51:24.058Z,5.26
2018-11-26T18:53:53.768Z,5.32
2018-11-26T18:56:23.731Z,5.35
2018-11-26T18:58:57.224Z,5.29
2018-11-26T19:01:27.145Z,5.29
2018-11-26T19:03:56.960Z,5.26
2018-11-26T19:06:26.740Z,5.37
2018-11-26T19:08:56.616Z,5.28
2018-11-26T19:11:26.468Z,5.30
2018-11-26T19:14:08.151Z,5.33
2018-11-26T19:16:41.729Z,5.27
2018-11-26T19:19:11.474Z,5.37
2018-11-26T19:21:41.332Z,5.38
2018-11-26T19:24:11.207Z,5.36
2018-11-26T19:26:40.993Z,5.31
2018-11-26T19:29:10.880Z,5.22
2018-11-26T19:31:40.869Z,5.29
2018-11-26T19:34:10.623Z,5.26
2018-11-26T19:36:40.547Z,5.14
2018-11-26T19:39:11.036Z,5.14
2018-11-26T19:41:40.987Z,5.09
2018-11-26T19:44:10.901Z,5.13
2018-11-26T19:46:40.863Z,5.18
2018-11-26T19:49:10.874Z,5.29
2018-11-26T19:51:40.688Z,5.25
2018-11-26T19:54:10.586Z,5.25
2018-11-26T19:56:40.547Z,5.19
2018-11-26T19:59:10.354Z,5.16
2018-11-26T20:01:40.324Z,5.19
2018-11-26T20:04:27.279Z,5.11
2018-11-26T20:06:57.211Z,5.30
2018-11-26T20:09:27.674Z,5.18
2018-11-26T20:11:57.570Z,5.11
2018-11-26T20:14:28.736Z,5.09
2018-11-26T20:16:58.689Z,5.09
2018-11-26T20:19:28.603Z,5.06
2018-11-26T20:21:58.917Z,5.02
2018-11-26T20:24:28.737Z,5.05
2018-11-26T20:26:59.246Z,5.14
2018-11-26T20:29:29.137Z,5.02
2018-11-26T20:31:58.973Z,5.22
2018-11-26T20:34:28.735Z,5.11
2018-11-26T20:36:58.618Z,5.11
2018-11-26T20:39:29.035Z,5.07
2018-11-26T20:41:58.846Z,5.04
2018-11-26T20:44:28.563Z,5.07
2018-11-26T20:46:58.603Z,5.07
2018-11-26T20:49:28.553Z,4.98
2018-11-26T20:51:58.728Z,4.98
2018-11-26T20:54:28.479Z,5.06
2018-11-26T20:56:58.368Z,5.03
2018-11-26T20:59:28.183Z,5.02
2018-11-26T21:01:58.026Z,5.02
2018-11-26T21:04:27.755Z,5.00
2018-11-26T21:06:57.752Z,4.93
2018-11-26T21:09:27.661Z,5.00
2018-11-26T21:11:57.484Z,4.93
2018-11-26T21:14:27.392Z,4.92
2018-11-26T21:16:57.366Z,4.87
2018-11-26T21:19:27.138Z,4.90
2018-11-26T21:21:57.073Z,4.95
2018-11-26T21:24:26.853Z,4.92
2018-11-26T21:26:56.579Z,4.88
2018-11-26T21:29:26.309Z,4.90
2018-11-26T21:31:56.097Z,4.84
2018-11-26T21:34:25.934Z,4.82
2018-11-26T21:36:55.732Z,4.84
2018-11-26T21:39:25.486Z,5.01
2018-11-26T21:41:55.231Z,5.02
2018-11-26T21:44:24.948Z,4.91
2018-11-26T21:46:54.773Z,4.96
2018-11-26T21:49:24.559Z,4.87
2018-11-26T21:51:54.604Z,4.85
2018-11-26T21:54:25.281Z,4.74
2018-11-26T21:56:55.312Z,4.66
2018-11-26T21:59:25.139Z,4.75
2018-11-26T22:01:55.519Z,4.70
2018-11-26T22:04:25.330Z,4.76
2018-11-26T22:06:55.044Z,4.88
2018-11-26T22:09:24.816Z,4.89
2018-11-26T22:11:54.496Z,4.82
2018-11-26T22:14:24.864Z,4.67
2018-11-26T22:16:54.635Z,4.60
2018-11-26T22:19:24.378Z,4.56
2018-11-26T22:21:54.317Z,4.53
2018-11-26T22:24:24.457Z,4.62
2018-11-26T22:26:54.275Z,4.54
2018-11-26T22:29:24.078Z,4.53
2018-11-26T22:31:54.448Z,4.57
2018-11-26T22:34:24.226Z,4.62
2018-11-26T22:36:54.054Z,4.56
2018-11-26T22:39:24.979Z,4.52
2018-11-26T22:41:54.801Z,4.58
2018-11-26T22:44:24.589Z,4.65
2018-11-26T22:46:54.318Z,4.63
2018-11-26T22:49:24.188Z,4.63
2018-11-26T22:51:54.154Z,4.54
2018-11-26T22:54:23.999Z,4.50
2018-11-26T22:56:53.827Z,4.50
2018-11-26T22:59:23.508Z,4.53
2018-11-26T23:01:53.290Z,4.60
2018-11-26T23:04:23.020Z,4.60
2018-11-26T23:06:52.768Z,4.57
2018-11-26T23:09:22.568Z,4.59
2018-11-26T23:11:52.373Z,4.59
2018-11-26T23:14:22.156Z,4.58
2018-11-26T23:16:51.892Z,4.53
2018-11-26T23:19:21.965Z,4.55
2018-11-26T23:21:51.874Z,4.55
2018-11-26T23:24:22.583Z,4.60
2018-11-26T23:26:53.084Z,4.62
2018-11-26T23:29:22.925Z,4.65
2018-11-26T23:31:52.723Z,4.64
2018-11-26T23:34:22.412Z,4.66
2018-11-26T23:36:53.116Z,4.63
2018-11-26T23:39:23.073Z,4.55
2018-11-26T23:41:52.823Z,4.54
2018-11-26T23:44:22.610Z,4.54
2018-11-26T23:46:52.277Z,4.64
2018-11-26T23:49:22.000Z,4.57
2018-11-26T23:51:51.908Z,4.54
2018-11-26T23:54:21.664Z,4.54
2018-11-26T23:56:51.771Z,4.52
2018-11-26T23:59:21.596Z,4.50
